Aérodrome :
LOGIN :

S'inscrire | Disclaimer

   EN    FR    IT 

 










Légende :    VFR   VFR Marginal   IFR   IFR Intensif   IFR Très Intensif
Visi : 
Plafond : 
>= 8 km
>= 3000ft
5 à 8 km
1000 à 3000 ft
1500m à 5 km
500 à 1000 ft
800 à 1500m
200 à 500 ft
< 800m
< 200 ft
Symboles :   Orages  Brouillard  Fortes neiges  Fortes précipitations  Vent > 20 kt
SIGMETs :   Divers  Orages  Givrage  Turbulence  Onde Orograph.  Cendres Volcan.






- Altitude de l'aérodrome : 364 ft


LFAQ - Albert Bray

DERNIER METAR :
  • 272130Z AUTO 31004KT 280V350 CAVOK 02/M01 Q1013

METARs EXPIRÉS :
  • 272100Z AUTO 29006KT CAVOK 03/M01 Q1013
  • 272030Z AUTO 29008KT CAVOK 03/M00 Q1012
  • 272000Z AUTO 29007KT CAVOK 02/M00 Q1012
  • 271930Z AUTO 29006KT CAVOK 03/M00 Q1011
  • 271900Z AUTO 30009KT CAVOK 03/00 Q1010

TAF TAF LFAQ
Valide du 27 à 15h jusqu'au 28 à 00h UTC


271400Z 2715/2724 33025G35KT 9999 BKN017
BECMG 2716/2718 33015KT
BECMG 2719/2721 28005KT



MET'MAP, la Météo Aéronautique d'un coup d'oeil ! - Copyright ORBIFLY Décembre 2007 - Disclaimer

ORBIFLY MET'MAP TEAM :

Programmation & Développement : Alexandra Zaïnal
Sur une idée originale de : Baudouin d'Aumeries
Assistance à la programmation : Marc-Olivier Méhu
Soutien technique & logistique : Manuel Goepfert

Contact : metmap@orbifly.com




SOURCES & CREDITS :

   NOAA